Selected Arizona METAR Reports


Metar stations are listed by distance from this station - near to far. The 'official' reporting station for the Greater Phoenix area is KPHX - Phoenix/Sky Harbor.

KDVT - Phoenix/Deer Valley, Arizona, USA
Distance from station: NW 4mi, 7km
Updated: Sun 29 Mar 2020 0353 MST
Clear
Clear
 Wind from calm
Wind: Calm
Temperature: 50°F , 10°C
Dew Point: 34°F , 1°C
Humidity: 54%
Barometer: 29.99 inHg , 1015.6 hPa
Clouds: Clear
Visibility: 10 miles , 16 km
2020/03/29 10:53 KDVT 291053Z AUTO 00000KT 10SM CLR 10/01 A2999 RMK AO2 SLP145 T01000011
KSDL - Scottsdale, Arizona, USA
Distance from station: ESE 6mi, 9km
Updated: Sun 29 Mar 2020 0353 MST
Clear
Clear
 Wind from calm
Wind: Calm
Temperature: 54°F , 12°C
Dew Point: 36°F , 2°C
Humidity: 51%
Barometer: 29.99 inHg , 1015.6 hPa
Clouds: Clear
Visibility: 10 miles , 16 km
2020/03/29 10:53 KSDL 291053Z AUTO 00000KT 10SM CLR 12/02 A2999 RMK AO2 SLP143 T01170017
 
KPHX - Phoenix/Sky Harbor, Arizona, USA
Distance from station: S 15mi, 24km
Updated: Sun 29 Mar 2020 0351 MST
Mostly cloudy
Mostly cloudy
 Wind from E
Wind: E 6 mph , 9 km/h
Temperature: 57°F , 14°C
Dew Point: 34°F , 1°C
Humidity: 41%
Barometer: 29.97 inHg , 1014.9 hPa
Clouds: Mostly cloudy
Visibility: 10 miles , 16 km
Cloud details: Mostly cloudy 20000 ft
2020/03/29 10:51 KPHX 291051Z 09005KT 10SM BKN200 14/01 A2997 RMK AO2 SLP140 T01390011
KGEU - Glendale, Arizona, USA
Distance from station: WSW 19mi, 30km
Updated: Sat 28 Mar 2020 1854 MST
NOT Current
Mostly cloudy
Mostly cloudy
 Wind from SW
Wind: SW 6 mph , 9 km/h
Temperature: 66°F , 19°C
Dew Point: 27°F , -3°C
Humidity: 22%
Barometer: 30.05 inHg , 1017.6 hPa
Clouds: Mostly cloudy
Visibility: 10 miles , 16 km
Cloud details: Partly cloudy 15000 ft
Mostly cloudy 20000 ft
Mostly cloudy 22000 ft
2020/03/29 01:54 KGEU 290154Z 22005KT 10SM SCT150 BKN200 BKN220 19/M03 A3005 RMK LAST
 
KFFZ - Mesa/Falcon Field, Arizona, USA
Distance from station: SE 21mi, 33km
Updated: Sun 29 Mar 2020 0354 MST
Clear
Clear
 Wind from NNE
Wind: NNE 6 mph , 9 km/h
Temperature: 54°F , 12°C
Dew Point: 36°F , 2°C
Humidity: 51%
Barometer: 29.99 inHg , 1015.6 hPa
Clouds: Clear
Visibility: 10 miles , 16 km
2020/03/29 10:54 KFFZ 291054Z AUTO 02005KT 10SM CLR 12/02 A2999 RMK AO2 SLP140 T01220017
KLUF - Luke AFB/Glendale, Arizona, USA
Distance from station: WSW 23mi, 36km
Updated: Sun 29 Mar 2020 0258 MST
Clear
Clear
 Wind from calm
Wind: Calm
Temperature: 52°F , 11°C
Dew Point: 37°F , 3°C
Humidity: 58%
Barometer: 29.97 inHg , 1014.9 hPa
Clouds: Clear
Visibility: 10 miles , 16 km
2020/03/29 09:58 KLUF 290958Z AUTO 00000KT 10SM CLR 11/03 A2997 RMK AO2 SLP144 T01130033 $
 
KGYR - Goodyear Municipal, Arizona, USA
Distance from station: SW 26mi, 42km
Updated: Sat 28 Mar 2020 2047 MST
NOT Current
Partly cloudy
Partly cloudy
 Wind from calm
Wind: Calm
Temperature: 61°F , 16°C
Dew Point: 32°F , 0°C
Humidity: 34%
Barometer: 30.05 inHg , 1017.6 hPa
Clouds: Partly cloudy
Visibility: 10 miles , 16 km
Cloud details: Partly cloudy 20000 ft
2020/03/29 03:47 KGYR 290347Z 00000KT 10SM SCT200 16/00 A3005 RMK LAST
KIWA - Chandler/Mesa, Arizona, USA
Distance from station: SE 32mi, 51km
Updated: Sun 29 Mar 2020 0355 MST
Clear
Clear
 Wind from E
Wind: E 7 mph , 11 km/h
Temperature: 50°F , 10°C
Wind Chill: 47°F , 8°C
Dew Point: 39°F , 4°C
Humidity: 67%
Barometer: 30.00 inHg , 1015.9 hPa
Clouds: Clear
Visibility: 10 miles , 16 km
2020/03/29 10:55 KIWA 291055Z AUTO 10006KT 10SM CLR 10/04 A3000 RMK AO2 T01030045
 
KBXK - Buckeye, Arizona, USA
Distance from station: WSW 42mi, 68km
Updated: Sun 29 Mar 2020 0355 MST
Mostly cloudy
Mostly cloudy
 Wind from calm
Wind: Calm
Temperature: 48°F , 9°C
Dew Point: 41°F , 5°C
Humidity: 76%
Barometer: 29.99 inHg , 1015.6 hPa
Clouds: Mostly cloudy
Visibility: 10 miles , 16 km
Cloud details: Partly cloudy 18000 ft
Mostly cloudy 20000 ft
Mostly cloudy 23000 ft
2020/03/29 10:55 KBXK 291055Z AUTO 00000KT 10SM SCT180 BKN200 BKN230 09/05 A2999 RMK A01
KCGZ - Casa Grande, Arizona, USA
Distance from station: SSE 50mi, 81km
Updated: Sun 29 Mar 2020 0356 MST
Clear
Clear
 Wind from WNW
Wind: WNW 3 mph , 6 km/h
Temperature: 52°F , 11°C
Dew Point: 28°F , -2°C
Humidity: 41%
Barometer: 29.99 inHg , 1015.6 hPa
Clouds: Clear
Visibility: 10 miles , 16 km
2020/03/29 10:56 KCGZ 291056Z AUTO 30003KT 10SM CLR 11/M02 A2999 RMK AO2 SLP152 T01111017
 
KPAN - Payson, Arizona, USA
Distance from station: NE 57mi, 91km
Updated: Sun 29 Mar 2020 0355 MST
Partly cloudy
Partly cloudy
 Wind from calm
Wind: Calm
Temperature: 37°F , 3°C
Dew Point: 25°F , -4°C
Humidity: 60%
Barometer: 30.06 inHg , 1017.9 hPa
Clouds: Partly cloudy
Visibility: 10 miles , 16 km
Cloud details: Partly cloudy 12000 ft
2020/03/29 10:55 KPAN 291055Z AUTO 00000KT 10SM SCT120 03/M04 A3006 RMK AO2
KGBN - Gila Bend (aaf), Arizona, USA
Distance from station: SW 68mi, 109km
Updated: Wed 04 Dec 2019 0855 MST
NOT Current
Mostly cloudy
Mostly cloudy
 Wind from calm
Wind: Calm
Temperature: 55°F , 13°C
Dew Point: 54°F , 12°C
Humidity: 94%
Barometer: 30.02 inHg , 1016.6 hPa
Clouds: Mostly cloudy
Visibility: 10 miles , 16 km
Cloud details: Mostly cloudy 10000 ft
Mostly cloudy 14000 ft
2019/12/04 15:55 KGBN 041555Z 00000KT 10SM BKN100 BKN140 13/12 A3002 RMK AO2A SLP162
 
KPRC - Prescott, Arizona, USA
Distance from station: NNW 73mi, 118km
Updated: Sun 29 Mar 2020 0353 MST
Clear
Clear
 Wind from calm
Wind: Calm
Temperature: 36°F , 2°C
Dew Point: 25°F , -4°C
Humidity: 65%
Barometer: 30.04 inHg , 1017.3 hPa
Clouds: Clear
Visibility: 10 miles , 16 km
2020/03/29 10:53 KPRC 291053Z AUTO 00000KT 10SM CLR 02/M04 A3004 RMK AO2 SLP145 T00221039
KSEZ - Sedona, Arizona, USA
Distance from station: N 84mi, 135km
Updated: Sun 29 Mar 2020 0355 MST
Clear
Clear
 Wind from NNE
Wind: NNE 7 mph , 11 km/h
Temperature: 41°F , 5°C
Wind Chill: 36°F , 2°C
Dew Point: 27°F , -3°C
Humidity: 57%
Barometer: 30.04 inHg , 1017.3 hPa
Clouds: Clear
Visibility: 10 miles , 16 km
2020/03/29 10:55 KSEZ 291055Z AUTO 02006KT 10SM CLR 05/M03 A3004 RMK AO2
 
KFLG - Flagstaff, Arizona, USA
Distance from station: N 105mi, 168km
Updated: Sun 29 Mar 2020 0357 MST
Partly cloudy
Partly cloudy
 Wind from calm
Wind: Calm
Temperature: 28°F , -2°C
Dew Point: 21°F , -6°C
Humidity: 74%
Barometer: 30.05 inHg , 1017.6 hPa
Clouds: Partly cloudy
Visibility: 10 miles , 16 km
Cloud details: Partly cloudy 10000 ft
Partly cloudy 12000 ft
2020/03/29 10:57 KFLG 291057Z AUTO 00000KT 10SM SCT100 SCT120 M02/M06 A3005 RMK AO2 SLP148 T10221061
KRYN - Tucson/Ryan Field, Arizona, USA
Distance from station: SSE 114mi, 184km
Updated: Sat 28 Mar 2020 1945 MST
NOT Current
Clear
Clear
 Wind from NNW
Wind: NNW 6 mph , 9 km/h
Temperature: 57°F , 14°C
Dew Point: 21°F , -6°C
Humidity: 25%
Barometer: 30.07 inHg , 1018.3 hPa
Clouds: Clear
Visibility: 10 miles , 16 km
2020/03/29 02:45 KRYN 290245Z 33005KT 10SM CLR 14/M06 A3007 RMK LAST
 
KCMR - Williams Clark, Arizona, USA
Distance from station: N 115mi, 185km
Updated: Sun 29 Mar 2020 0355 MST
Overcast
Overcast
 Wind from SSE
Wind: SSE 7 mph , 11 km/h
Temperature: 28°F , -2°C
Wind Chill: 21°F , -6°C
Dew Point: 21°F , -6°C
Humidity: 74%
Barometer: 30.05 inHg , 1017.6 hPa
Clouds: Overcast
Visibility: 10 miles , 16 km
Cloud details: Few Clouds 8000 ft
Overcast 9500 ft
2020/03/29 10:55 KCMR 291055Z AUTO 16006KT 10SM FEW080 OVC095 M02/M06 A3005 RMK AO2
KINW - Winslow, Arizona, USA
Distance from station: NE 121mi, 194km
Updated: Sun 29 Mar 2020 0356 MST
Clear
Clear
 Wind from E
Wind: E 8 mph , 13 km/h
Temperature: 37°F , 3°C
Wind Chill: 31°F , -1°C
Dew Point: 19°F , -7°C
Humidity: 48%
Barometer: 30.05 inHg , 1017.6 hPa
Clouds: Clear
Visibility: 10 miles , 16 km
2020/03/29 10:56 KINW 291056Z AUTO 10007KT 10SM CLR 03/M07 A3005 RMK AO2 SLP154 T00331072
 
KTUS - Tucson, Arizona, USA
Distance from station: SSE 121mi, 195km
Updated: Sun 29 Mar 2020 0353 MST
Clear
Clear
 Wind from SE
Wind: SE 8 mph , 13 km/h
Temperature: 48°F , 9°C
Wind Chill: 44°F , 7°C
Dew Point: 21°F , -6°C
Humidity: 34%
Barometer: 30.03 inHg , 1016.9 hPa
Clouds: Clear
Visibility: 10 miles , 16 km
2020/03/29 10:53 KTUS 291053Z 14007KT 10SM CLR 09/M06 A3003 RMK AO2 SLP146 T00891056
KDMA - Davis AFB/Tucson, Arizona, USA
Distance from station: SE 122mi, 196km
Updated: Sun 29 Mar 2020 0258 MST
Clear
Clear
 Wind from E
Wind: E 6 mph , 9 km/h
Temperature: 48°F , 9°C
Wind Chill: 45°F , 7°C
Dew Point: 25°F , -4°C
Humidity: 40%
Barometer: 30.01 inHg , 1016.3 hPa
Clouds: Clear
Visibility: 10 miles , 16 km
2020/03/29 09:58 KDMA 290958Z AUTO 10005KT 10SM CLR 09/M04 A3001 RMK AO2 SLP142 T00881037 FZRANO $
 
KSOW - Show Low Municipal, Arizona, USA
Distance from station: ENE 123mi, 198km
Updated: Sun 29 Mar 2020 0355 MST
Partly cloudy
Partly cloudy
 Wind from S
Wind: S 7 mph , 11 km/h
Temperature: 37°F , 3°C
Wind Chill: 32°F , 0°C
Dew Point: 19°F , -7°C
Humidity: 48%
Barometer: 30.07 inHg , 1018.3 hPa
Clouds: Partly cloudy
Visibility: 10 miles , 16 km
Cloud details: Partly cloudy 10000 ft
2020/03/29 10:55 KSOW 291055Z AUTO 18006KT 10SM SCT100 03/M07 A3007 RMK AO2
KSAD - Safford, Arizona, USA
Distance from station: ESE 148mi, 238km
Updated: Sun 29 Mar 2020 0351 MST
Clear
Clear
 Wind from calm
Wind: Calm
Temperature: 43°F , 6°C
Dew Point: 28°F , -2°C
Humidity: 57%
Barometer: 30.03 inHg , 1016.9 hPa
Clouds: Clear
Visibility: 10 miles , 16 km
2020/03/29 10:51 KSAD 291051Z AUTO 00000KT 10SM CLR 06/M02 A3003 RMK AO2 SLP149 T00561022 $